createdAt,value
2023-03-05T00:01:36.155Z,4.38
2023-03-05T00:04:04.387Z,4.38
2023-03-05T00:06:33.521Z,4.41
2023-03-05T00:09:00.505Z,4.36
2023-03-05T00:11:28.363Z,4.34
2023-03-05T00:13:55.930Z,4.33
2023-03-05T00:16:30.417Z,4.34
2023-03-05T00:18:59.186Z,4.34
2023-03-05T00:21:34.921Z,4.28
2023-03-05T00:24:02.549Z,4.27
2023-03-05T00:26:32.058Z,4.28
2023-03-05T00:28:58.618Z,4.31
2023-03-05T00:31:27.749Z,4.36
2023-03-05T00:33:57.027Z,4.32
2023-03-05T00:36:25.962Z,4.33
2023-03-05T00:38:52.645Z,4.37
2023-03-05T00:41:19.359Z,4.31
2023-03-05T00:43:48.375Z,4.27
2023-03-05T00:46:14.949Z,4.17
2023-03-05T00:48:46.455Z,4.17
2023-03-05T00:51:14.044Z,4.16
2023-03-05T00:53:46.553Z,4.23
2023-03-05T00:56:12.947Z,4.14
2023-03-05T00:58:39.760Z,4.11
2023-03-05T01:01:06.760Z,4.07
2023-03-05T01:03:35.016Z,4.01
2023-03-05T01:06:05.502Z,3.99
2023-03-05T01:08:35.780Z,3.98
2023-03-05T01:11:04.214Z,3.94
2023-03-05T01:13:37.138Z,3.95
2023-03-05T01:16:04.171Z,3.92
2023-03-05T01:18:30.622Z,3.89
2023-03-05T01:20:57.043Z,3.93
2023-03-05T01:23:23.414Z,4.00
2023-03-05T01:25:54.742Z,3.92
2023-03-05T01:28:21.318Z,3.90
2023-03-05T01:30:48.018Z,3.90
2023-03-05T01:33:19.095Z,3.94
2023-03-05T01:35:55.598Z,3.88
2023-03-05T01:38:23.662Z,3.96
2023-03-05T01:40:50.031Z,3.97
2023-03-05T01:43:29.018Z,3.97
2023-03-05T01:46:23.316Z,3.96
2023-03-05T01:49:15.009Z,3.91
2023-03-05T01:52:00.488Z,3.82
2023-03-05T01:54:32.681Z,3.84
2023-03-05T01:57:04.935Z,3.84
2023-03-05T01:59:33.954Z,3.73
2023-03-05T02:02:00.380Z,3.78
2023-03-05T02:04:36.211Z,3.77
2023-03-05T02:07:05.804Z,3.76
2023-03-05T02:09:32.456Z,3.73
2023-03-05T02:11:59.377Z,3.72
2023-03-05T02:14:26.830Z,3.75
2023-03-05T02:16:53.349Z,3.79
2023-03-05T02:19:19.849Z,3.82
2023-03-05T02:21:48.390Z,3.81
2023-03-05T02:24:32.464Z,3.84
2023-03-05T02:26:59.940Z,3.91
2023-03-05T02:29:30.569Z,3.92
2023-03-05T02:31:57.165Z,3.82
2023-03-05T02:34:28.920Z,3.82
2023-03-05T02:36:55.293Z,3.81
2023-03-05T02:39:21.675Z,3.79
2023-03-05T02:41:48.029Z,3.76
2023-03-05T02:44:14.353Z,3.77
2023-03-05T02:46:40.728Z,3.79
2023-03-05T02:49:07.102Z,3.82
2023-03-05T02:51:33.497Z,3.88
2023-03-05T02:53:59.868Z,3.89
2023-03-05T02:56:26.447Z,3.93
2023-03-05T02:58:52.788Z,3.88
2023-03-05T03:01:19.242Z,3.90
2023-03-05T03:03:45.645Z,3.89
2023-03-05T03:06:11.975Z,3.86
2023-03-05T03:08:38.389Z,3.81
2023-03-05T03:11:06.752Z,3.82
2023-03-05T03:13:53.291Z,3.84
2023-03-05T03:16:20.914Z,3.78
2023-03-05T03:18:49.577Z,3.80
2023-03-05T03:21:24.516Z,3.86
2023-03-05T03:23:55.225Z,3.88
2023-03-05T03:26:21.885Z,3.79
2023-03-05T03:28:48.322Z,3.77
2023-03-05T03:31:16.098Z,3.71
2023-03-05T03:33:42.622Z,3.72
2023-03-05T03:36:11.776Z,3.69
2023-03-05T03:38:40.604Z,3.69
2023-03-05T03:41:09.514Z,3.64
2023-03-05T03:43:47.554Z,3.60
2023-03-05T03:46:16.643Z,3.62
2023-03-05T03:48:42.992Z,3.59
2023-03-05T03:51:09.352Z,3.54
2023-03-05T03:53:35.935Z,3.58
2023-03-05T03:56:02.525Z,3.56
2023-03-05T03:58:30.521Z,3.58
2023-03-05T04:00:57.132Z,3.59
2023-03-05T04:03:24.728Z,3.58
2023-03-05T04:05:51.171Z,3.64
2023-03-05T04:08:17.590Z,3.62
2023-03-05T04:10:44.587Z,3.69
2023-03-05T04:13:12.166Z,3.73
2023-03-05T04:15:38.581Z,3.72
2023-03-05T04:18:06.321Z,3.75
2023-03-05T04:20:35.366Z,3.79
2023-03-05T04:23:10.759Z,3.72
2023-03-05T04:25:37.106Z,3.71
2023-03-05T04:28:04.675Z,3.76
2023-03-05T04:30:33.520Z,3.75
2023-03-05T04:32:59.844Z,3.66
2023-03-05T04:35:26.603Z,3.66
2023-03-05T04:37:56.149Z,3.65
2023-03-05T04:40:22.601Z,3.65
2023-03-05T04:42:49.020Z,3.64
2023-03-05T04:45:15.432Z,3.63
2023-03-05T04:47:41.796Z,3.63
2023-03-05T04:50:11.536Z,3.62
2023-03-05T04:52:40.506Z,3.58
2023-03-05T04:55:08.909Z,3.55
2023-03-05T04:57:46.028Z,3.49
2023-03-05T05:00:14.750Z,3.50
2023-03-05T05:02:43.275Z,3.48
2023-03-05T05:05:13.260Z,3.46
2023-03-05T05:07:41.323Z,3.47
2023-03-05T05:10:10.458Z,3.48
2023-03-05T05:12:37.496Z,3.43
2023-03-05T05:15:08.100Z,3.39
2023-03-05T05:17:34.774Z,3.40
2023-03-05T05:20:02.342Z,3.39
2023-03-05T05:22:29.243Z,3.42
2023-03-05T05:25:04.314Z,3.40
2023-03-05T05:27:30.802Z,3.35
2023-03-05T05:29:59.176Z,3.33
2023-03-05T05:32:30.555Z,3.34
2023-03-05T05:35:00.334Z,3.39
2023-03-05T05:37:28.398Z,3.38
2023-03-05T05:39:54.794Z,3.26
2023-03-05T05:42:24.305Z,3.31
2023-03-05T05:44:50.828Z,3.26
2023-03-05T05:47:26.370Z,3.26
2023-03-05T05:49:52.855Z,3.23
2023-03-05T05:52:21.936Z,3.23
2023-03-05T05:54:49.099Z,3.27
2023-03-05T05:57:15.686Z,3.25
2023-03-05T05:59:42.080Z,3.20
2023-03-05T06:02:10.927Z,3.23
2023-03-05T06:04:37.685Z,3.29
2023-03-05T06:07:05.190Z,3.36
2023-03-05T06:09:31.552Z,3.36
2023-03-05T06:12:00.320Z,3.38
2023-03-05T06:14:28.966Z,3.41
2023-03-05T06:16:55.377Z,3.40
2023-03-05T06:19:21.739Z,3.38
2023-03-05T06:21:51.746Z,3.42
2023-03-05T06:24:18.202Z,3.38
2023-03-05T06:26:47.638Z,3.42
2023-03-05T06:29:13.954Z,3.37
2023-03-05T06:31:41.150Z,3.34
2023-03-05T06:34:07.501Z,3.31
2023-03-05T06:36:41.373Z,3.29
2023-03-05T06:39:12.762Z,3.26
2023-03-05T06:41:39.112Z,3.27
2023-03-05T06:44:06.688Z,3.24
2023-03-05T06:46:36.029Z,3.25
2023-03-05T06:49:03.449Z,3.29
2023-03-05T06:51:32.950Z,3.32
2023-03-05T06:54:04.517Z,3.37
2023-03-05T06:56:31.308Z,3.38
2023-03-05T06:58:58.157Z,3.41
2023-03-05T07:01:24.593Z,3.47
2023-03-05T07:03:54.620Z,3.45
2023-03-05T07:06:22.191Z,3.53
2023-03-05T07:08:52.006Z,3.61
2023-03-05T07:11:20.651Z,3.69
2023-03-05T07:13:47.748Z,3.66
2023-03-05T07:16:17.473Z,3.77
2023-03-05T07:18:44.613Z,3.83
2023-03-05T07:21:15.812Z,3.82
2023-03-05T07:23:42.170Z,3.82
2023-03-05T07:26:09.334Z,3.83
2023-03-05T07:28:35.733Z,3.79
2023-03-05T07:31:07.451Z,3.98
2023-03-05T07:33:34.753Z,3.93
2023-03-05T07:36:01.417Z,4.03
2023-03-05T07:38:28.122Z,4.12
2023-03-05T07:40:54.493Z,4.13
2023-03-05T07:43:23.569Z,4.23
2023-03-05T07:45:49.906Z,4.13
2023-03-05T07:48:18.511Z,4.14
2023-03-05T07:50:45.239Z,4.20
2023-03-05T07:53:14.530Z,4.31
2023-03-05T07:55:50.522Z,4.28
2023-03-05T07:58:17.982Z,4.36
2023-03-05T08:00:45.625Z,4.45
2023-03-05T08:03:12.008Z,4.55
2023-03-05T08:05:42.268Z,4.65
2023-03-05T08:08:11.685Z,4.73
2023-03-05T08:10:38.166Z,4.85
2023-03-05T08:13:05.007Z,4.85
2023-03-05T08:15:31.678Z,4.95
2023-03-05T08:17:58.562Z,5.05
2023-03-05T08:20:24.865Z,5.01
2023-03-05T08:22:51.219Z,5.02
2023-03-05T08:25:17.651Z,5.06
2023-03-05T08:27:45.461Z,5.01
2023-03-05T08:30:16.889Z,5.10
2023-03-05T08:32:43.298Z,5.20
2023-03-05T08:35:10.132Z,5.43
2023-03-05T08:37:37.045Z,5.46
2023-03-05T08:40:06.396Z,5.59
2023-03-05T08:42:32.783Z,5.66
2023-03-05T08:45:00.234Z,5.66
2023-03-05T08:47:26.845Z,5.83
2023-03-05T08:49:53.612Z,5.92
2023-03-05T08:52:19.897Z,5.95
2023-03-05T08:54:48.815Z,6.06
2023-03-05T08:57:17.545Z,6.04
2023-03-05T08:59:46.566Z,6.14
2023-03-05T09:02:13.529Z,6.21
2023-03-05T09:04:43.096Z,6.28
2023-03-05T09:07:18.018Z,6.41
2023-03-05T09:09:48.535Z,6.33
2023-03-05T09:12:21.550Z,6.43
2023-03-05T09:14:50.541Z,6.58
2023-03-05T09:17:19.885Z,6.72
2023-03-05T09:19:46.212Z,6.65
2023-03-05T09:22:12.576Z,6.63
2023-03-05T09:24:41.622Z,6.60
2023-03-05T09:27:08.043Z,6.43
2023-03-05T09:29:34.531Z,6.47
2023-03-05T09:32:01.080Z,6.39
2023-03-05T09:34:29.301Z,6.33
2023-03-05T09:36:55.616Z,6.44
2023-03-05T09:39:24.801Z,6.49
2023-03-05T09:42:00.643Z,6.56
2023-03-05T09:44:57.990Z,6.66
2023-03-05T09:48:16.795Z,6.66
2023-03-05T09:51:03.476Z,6.84
2023-03-05T09:53:46.544Z,6.67
2023-03-05T09:56:22.685Z,6.68
2023-03-05T09:59:01.962Z,6.63
2023-03-05T10:01:38.323Z,6.74
2023-03-05T10:04:12.865Z,6.91
2023-03-05T10:07:08.716Z,6.88
2023-03-05T10:10:16.335Z,6.94
2023-03-05T10:12:53.795Z,7.22
2023-03-05T10:15:55.864Z,7.41
2023-03-05T10:18:30.590Z,7.46
2023-03-05T10:21:00.958Z,7.47
2023-03-05T10:23:31.979Z,7.50
2023-03-05T10:26:09.727Z,7.48
2023-03-05T10:29:05.370Z,7.37
2023-03-05T10:31:58.389Z,7.43
2023-03-05T10:34:55.494Z,7.78
2023-03-05T10:37:54.162Z,7.69
2023-03-05T10:40:45.542Z,8.04
2023-03-05T10:43:34.859Z,7.94
2023-03-05T10:46:04.672Z,8.11
2023-03-05T10:48:43.443Z,8.04
2023-03-05T10:51:19.085Z,7.92
2023-03-05T10:53:50.441Z,8.01
2023-03-05T10:56:23.790Z,7.95
2023-03-05T10:58:50.243Z,8.10
2023-03-05T11:01:21.615Z,7.77
2023-03-05T11:03:59.924Z,8.00
2023-03-05T11:06:38.109Z,8.14
2023-03-05T11:09:32.176Z,8.24
2023-03-05T11:12:15.485Z,8.27
2023-03-05T11:15:05.476Z,8.53
2023-03-05T11:17:42.324Z,9.07
2023-03-05T11:20:26.838Z,9.45
2023-03-05T11:23:05.409Z,9.50
2023-03-05T11:25:34.268Z,9.38
2023-03-05T11:28:02.266Z,9.00
2023-03-05T11:30:36.814Z,8.74
2023-03-05T11:33:20.653Z,8.84
2023-03-05T11:35:49.159Z,8.78
2023-03-05T11:38:35.108Z,9.13
2023-03-05T11:41:01.755Z,9.59
2023-03-05T11:43:30.005Z,10.02
2023-03-05T11:46:05.075Z,10.06
2023-03-05T11:48:44.491Z,9.72
2023-03-05T11:51:40.652Z,9.32
2023-03-05T11:54:12.741Z,9.30
2023-03-05T11:56:42.938Z,9.37
2023-03-05T11:59:23.140Z,9.56
2023-03-05T12:01:52.594Z,10.20
2023-03-05T12:04:20.256Z,10.71
2023-03-05T12:06:55.706Z,11.47
2023-03-05T12:09:42.401Z,10.66
2023-03-05T12:12:38.738Z,10.42
2023-03-05T12:15:32.926Z,10.18
2023-03-05T12:18:26.820Z,10.15
2023-03-05T12:20:59.170Z,9.59
2023-03-05T12:23:32.841Z,9.70
2023-03-05T12:26:01.766Z,9.97
2023-03-05T12:28:33.943Z,10.14
2023-03-05T12:31:06.059Z,10.59
2023-03-05T12:33:46.990Z,10.58
2023-03-05T12:36:25.018Z,10.88
2023-03-05T12:38:56.911Z,11.01
2023-03-05T12:41:23.161Z,10.42
2023-03-05T12:44:04.830Z,10.24
2023-03-05T12:46:39.053Z,10.53
2023-03-05T12:49:28.484Z,9.91
2023-03-05T12:52:05.753Z,9.73
2023-03-05T12:54:37.722Z,9.62
2023-03-05T12:57:15.384Z,9.44
2023-03-05T12:59:58.500Z,9.69
2023-03-05T13:02:39.349Z,9.64
2023-03-05T13:05:26.288Z,9.86
2023-03-05T13:08:08.699Z,9.84
2023-03-05T13:10:34.923Z,9.77
2023-03-05T13:13:01.358Z,9.87
2023-03-05T13:15:38.675Z,9.86
2023-03-05T13:18:05.814Z,9.79
2023-03-05T13:20:37.937Z,9.63
2023-03-05T13:23:20.062Z,9.28
2023-03-05T13:25:59.608Z,9.25
2023-03-05T13:28:26.744Z,9.11
2023-03-05T13:30:57.017Z,9.02
2023-03-05T13:33:30.143Z,9.04
2023-03-05T13:35:56.659Z,8.93
2023-03-05T13:38:31.402Z,8.96
2023-03-05T13:41:07.083Z,8.55
2023-03-05T13:43:44.162Z,8.66
2023-03-05T13:46:10.924Z,8.63
2023-03-05T13:48:37.383Z,8.55
2023-03-05T13:51:04.205Z,8.47
2023-03-05T13:53:40.352Z,8.25
2023-03-05T13:56:12.471Z,8.45
2023-03-05T13:58:47.888Z,8.74
2023-03-05T14:01:28.691Z,8.71
2023-03-05T14:04:05.078Z,8.50
2023-03-05T14:06:32.645Z,8.34
2023-03-05T14:09:24.360Z,8.32
2023-03-05T14:12:00.914Z,8.21
2023-03-05T14:14:28.962Z,8.20
2023-03-05T14:16:55.684Z,8.10
2023-03-05T14:19:35.391Z,8.39
2023-03-05T14:22:06.134Z,8.59
2023-03-05T14:24:33.003Z,8.89
2023-03-05T14:27:06.103Z,9.32
2023-03-05T14:29:32.789Z,9.61
2023-03-05T14:32:02.591Z,9.91
2023-03-05T14:34:36.546Z,11.00
2023-03-05T14:37:21.590Z,11.43
2023-03-05T14:39:55.620Z,11.25
2023-03-05T14:42:30.681Z,10.80
2023-03-05T14:45:09.608Z,10.14
2023-03-05T14:47:38.549Z,9.62
2023-03-05T14:50:07.343Z,9.01
2023-03-05T14:52:36.721Z,8.76
2023-03-05T14:55:06.893Z,8.59
2023-03-05T14:57:33.487Z,8.42
2023-03-05T14:59:59.792Z,8.19
2023-03-05T15:02:29.135Z,7.90
2023-03-05T15:04:55.593Z,7.54
2023-03-05T15:07:34.383Z,7.19
2023-03-05T15:10:06.557Z,7.15
2023-03-05T15:12:33.095Z,6.85
2023-03-05T15:14:59.501Z,6.77
2023-03-05T15:17:36.461Z,6.69
2023-03-05T15:20:05.377Z,6.54
2023-03-05T15:22:31.673Z,6.58
2023-03-05T15:24:58.247Z,6.39
2023-03-05T15:27:26.798Z,6.28
2023-03-05T15:30:00.390Z,6.23
2023-03-05T15:32:30.029Z,6.16
2023-03-05T15:34:57.190Z,6.07
2023-03-05T15:37:23.691Z,6.07
2023-03-05T15:39:50.046Z,6.03
2023-03-05T15:42:17.699Z,5.98
2023-03-05T15:44:44.413Z,6.02
2023-03-05T15:47:10.938Z,6.01
2023-03-05T15:49:37.258Z,5.93
2023-03-05T15:52:03.791Z,5.91
2023-03-05T15:54:30.074Z,5.92
2023-03-05T15:56:56.410Z,6.04
2023-03-05T15:59:22.734Z,6.00
2023-03-05T16:01:54.148Z,5.96
2023-03-05T16:04:20.583Z,5.96
2023-03-05T16:06:49.301Z,5.91
2023-03-05T16:09:17.592Z,5.93
2023-03-05T16:11:44.612Z,5.81
2023-03-05T16:14:11.514Z,5.80
2023-03-05T16:16:41.202Z,5.77
2023-03-05T16:19:11.010Z,5.86
2023-03-05T16:21:37.547Z,5.87
2023-03-05T16:24:04.002Z,5.81
2023-03-05T16:26:30.468Z,5.83
2023-03-05T16:28:56.849Z,5.84
2023-03-05T16:31:23.428Z,5.82
2023-03-05T16:33:49.800Z,5.78
2023-03-05T16:36:16.444Z,5.73
2023-03-05T16:38:42.999Z,5.81
2023-03-05T16:41:09.366Z,5.86
2023-03-05T16:43:38.463Z,5.88
2023-03-05T16:46:05.007Z,5.89
2023-03-05T16:48:31.481Z,5.88
2023-03-05T16:50:59.514Z,5.84
2023-03-05T16:53:25.862Z,5.75
2023-03-05T16:55:52.476Z,5.74
2023-03-05T16:58:18.892Z,5.77
2023-03-05T17:00:46.438Z,5.79
2023-03-05T17:03:12.772Z,5.79
2023-03-05T17:05:41.384Z,5.87
2023-03-05T17:08:07.798Z,5.83
2023-03-05T17:10:34.288Z,5.88
2023-03-05T17:13:00.665Z,5.85
2023-03-05T17:15:27.108Z,5.84
2023-03-05T17:17:54.592Z,5.83
2023-03-05T17:20:21.141Z,5.83
2023-03-05T17:22:48.893Z,5.80
2023-03-05T17:25:18.021Z,5.80
2023-03-05T17:27:44.425Z,5.72
2023-03-05T17:30:11.287Z,5.79
2023-03-05T17:32:40.429Z,5.69
2023-03-05T17:35:23.008Z,5.70
2023-03-05T17:37:49.954Z,5.60
2023-03-05T17:40:17.466Z,5.67
2023-03-05T17:42:43.926Z,5.60
2023-03-05T17:45:11.180Z,5.58
2023-03-05T17:47:38.875Z,5.48
2023-03-05T17:50:09.456Z,5.51
2023-03-05T17:52:36.774Z,5.44
2023-03-05T17:55:10.296Z,5.41
2023-03-05T17:57:39.259Z,5.46
2023-03-05T18:00:15.452Z,5.51
2023-03-05T18:02:44.440Z,5.41
2023-03-05T18:05:11.952Z,5.31
2023-03-05T18:07:42.175Z,5.33
2023-03-05T18:10:11.754Z,5.27
2023-03-05T18:12:38.449Z,5.22
2023-03-05T18:15:10.311Z,5.25
2023-03-05T18:17:38.189Z,5.22
2023-03-05T18:20:07.970Z,5.16
2023-03-05T18:22:35.417Z,5.22
2023-03-05T18:25:06.022Z,5.17
2023-03-05T18:27:42.556Z,5.22
2023-03-05T18:30:09.762Z,5.15
2023-03-05T18:32:36.113Z,5.14
2023-03-05T18:35:04.909Z,5.05
2023-03-05T18:37:33.852Z,5.03
2023-03-05T18:40:00.396Z,5.03
2023-03-05T18:42:26.946Z,5.04
2023-03-05T18:44:54.506Z,4.98
2023-03-05T18:47:23.885Z,4.93
2023-03-05T18:49:53.858Z,4.89
2023-03-05T18:52:20.341Z,4.85
2023-03-05T18:54:49.540Z,4.84
2023-03-05T18:57:18.191Z,4.81
2023-03-05T18:59:44.749Z,4.77
2023-03-05T19:02:19.420Z,4.70
2023-03-05T19:04:45.733Z,4.71
2023-03-05T19:07:22.466Z,4.72
2023-03-05T19:09:57.071Z,4.69
2023-03-05T19:12:29.050Z,4.67
2023-03-05T19:14:55.407Z,4.67
2023-03-05T19:17:21.807Z,4.64
2023-03-05T19:19:56.057Z,4.59
2023-03-05T19:22:22.409Z,4.56
2023-03-05T19:24:50.793Z,4.48
2023-03-05T19:27:17.172Z,4.45
2023-03-05T19:29:49.388Z,4.45
2023-03-05T19:32:17.653Z,4.44
2023-03-05T19:34:44.579Z,4.45
2023-03-05T19:37:14.083Z,4.45
2023-03-05T19:39:48.270Z,4.42
2023-03-05T19:42:14.818Z,4.43
2023-03-05T19:44:41.281Z,4.44
2023-03-05T19:47:07.932Z,4.42
2023-03-05T19:49:37.182Z,4.36
2023-03-05T19:52:04.225Z,4.37
2023-03-05T19:54:35.290Z,4.33
2023-03-05T19:57:01.658Z,4.26
2023-03-05T19:59:28.062Z,4.25
2023-03-05T20:01:54.529Z,4.20
2023-03-05T20:04:22.800Z,4.22
2023-03-05T20:06:55.423Z,4.21
2023-03-05T20:09:21.728Z,4.21
2023-03-05T20:11:48.113Z,4.18
2023-03-05T20:14:14.663Z,4.18
2023-03-05T20:16:42.310Z,4.20
2023-03-05T20:19:14.767Z,4.14
2023-03-05T20:21:44.442Z,4.19
2023-03-05T20:24:14.064Z,4.15
2023-03-05T20:26:42.177Z,4.14
2023-03-05T20:29:19.753Z,4.11
2023-03-05T20:31:46.867Z,4.10
2023-03-05T20:34:15.712Z,4.11
2023-03-05T20:36:43.292Z,4.04
2023-03-05T20:39:15.908Z,4.05
2023-03-05T20:41:48.567Z,4.06
2023-03-05T20:44:15.160Z,4.11
2023-03-05T20:46:49.997Z,4.07
2023-03-05T20:49:16.516Z,4.02
2023-03-05T20:51:43.078Z,3.94
2023-03-05T20:54:12.648Z,3.91
2023-03-05T20:56:39.079Z,3.92
2023-03-05T20:59:07.837Z,3.93
2023-03-05T21:01:37.729Z,3.96
2023-03-05T21:04:09.313Z,3.96
2023-03-05T21:06:38.545Z,3.98
2023-03-05T21:09:08.158Z,3.95
2023-03-05T21:11:34.502Z,3.96
2023-03-05T21:14:01.168Z,3.97
2023-03-05T21:16:29.957Z,3.93
2023-03-05T21:18:59.210Z,3.97
2023-03-05T21:21:28.485Z,3.92
2023-03-05T21:23:58.511Z,3.94
2023-03-05T21:26:24.872Z,3.92
2023-03-05T21:28:51.298Z,3.85
2023-03-05T21:31:20.333Z,3.86
2023-03-05T21:33:59.321Z,3.76
2023-03-05T21:36:33.226Z,3.86
2023-03-05T21:39:05.282Z,3.79
2023-03-05T21:41:31.756Z,3.76
2023-03-05T21:43:58.121Z,3.82
2023-03-05T21:46:30.545Z,3.83
2023-03-05T21:49:01.957Z,3.77
2023-03-05T21:51:28.267Z,3.79
2023-03-05T21:53:54.558Z,3.78
2023-03-05T21:56:23.191Z,3.77
2023-03-05T21:58:51.057Z,3.77
2023-03-05T22:01:19.697Z,3.74
2023-03-05T22:03:49.164Z,3.72
2023-03-05T22:06:18.376Z,3.73
2023-03-05T22:08:45.031Z,3.69
2023-03-05T22:11:13.187Z,3.60
2023-03-05T22:13:42.264Z,3.63
2023-03-05T22:16:09.688Z,3.57
2023-03-05T22:18:38.534Z,3.52
2023-03-05T22:21:05.533Z,3.51
2023-03-05T22:23:36.890Z,3.48
2023-03-05T22:26:07.322Z,3.50
2023-03-05T22:28:35.140Z,3.50
2023-03-05T22:31:01.645Z,3.41
2023-03-05T22:33:28.899Z,3.44
2023-03-05T22:36:04.171Z,3.40
2023-03-05T22:38:30.552Z,3.44
2023-03-05T22:40:59.201Z,3.45
2023-03-05T22:43:25.570Z,3.40
2023-03-05T22:45:51.953Z,3.33
2023-03-05T22:48:18.498Z,3.28
2023-03-05T22:50:44.867Z,3.26
2023-03-05T22:53:12.063Z,3.18
2023-03-05T22:55:43.130Z,3.16
2023-03-05T22:58:11.573Z,3.11
2023-03-05T23:00:38.065Z,3.06
2023-03-05T23:03:04.882Z,3.07
2023-03-05T23:05:31.170Z,2.99
2023-03-05T23:08:05.412Z,2.98
2023-03-05T23:10:31.805Z,2.93
2023-03-05T23:12:59.731Z,2.92
2023-03-05T23:15:32.462Z,2.85
2023-03-05T23:17:59.280Z,2.82
2023-03-05T23:20:31.368Z,2.79
2023-03-05T23:23:03.503Z,2.81
2023-03-05T23:25:35.739Z,2.79
2023-03-05T23:28:02.760Z,2.72
2023-03-05T23:30:31.030Z,2.69
2023-03-05T23:33:04.239Z,2.65
2023-03-05T23:35:34.165Z,2.61
2023-03-05T23:38:04.232Z,2.56
2023-03-05T23:40:33.721Z,2.57
2023-03-05T23:43:00.569Z,2.49
2023-03-05T23:45:33.423Z,2.40
2023-03-05T23:48:04.844Z,2.36
2023-03-05T23:50:33.915Z,2.33
2023-03-05T23:53:01.996Z,2.25
2023-03-05T23:55:33.073Z,2.24
2023-03-05T23:58:00.606Z,2.25
